Mazar-i-Sharif, Afghanistan
Current Conditions -  °F | °C
As of 2:50 PM on Wednesday 26 Nov 2014 (Local Time) from OAMS Reporting Station
Broken Clouds Broken Clouds  
Wind Chill: 50°   Ceiling: 12000
Heat Index: 50°   Visibility: 6mi
Dew Point: 39°   Wind: 6mph
Humidity: 66%   Direction: 60°ENE
Pressure: 29.91"   Gusts: NA
Location:  36.7°N, 67.12°E
Report Text: OAMS 261050Z 06005KT 9999 BKN120 BKN150 10/04 Q1013 BLU BLU TEMPO WHT
Loading
Personal Weather Stations






























Interactive Weather Map New forecast layout! Learn more

10-Day Weather Forecast

Advertisements
Track Severe Weather on mobile